Time;durP1;ratioP1;P1;durP2;ratioP2;P2;SDS_P1;SDS_P2;PMS_P1;PMS_P2;Temp;Humidity;BMP_temperature;BMP_pressure;BME280_temperature;BME280_humidity;BME280_pressure;Samples;Min_cycle;Max_cycle;Signal;HPM_P1;HPM_P2
2022/04/20 00:02:26;;;;;;;3.07;2.10;;;;;;;;;;4934461;29;20524;-75
2022/04/20 00:04:55;;;;;;;3.00;2.20;;;;;;;;;;4934819;29;20442;-76
2022/04/20 00:07:22;;;;;;;1.93;1.80;;;;;;;;;;4934188;29;20450;-75
2022/04/20 00:09:50;;;;;;;2.83;1.97;;;;;;;;;;4936122;29;20451;-75
2022/04/20 00:12:19;;;;;;;2.97;2.00;;;;;;;;;;4935960;29;20474;-75
2022/04/20 00:14:46;;;;;;;3.60;2.13;;;;;;;;;;4931408;29;20439;-76
2022/04/20 00:17:13;;;;;;;3.23;2.50;;;;;;;;;;4930140;29;20447;-75
2022/04/20 00:19:40;;;;;;;2.27;2.07;;;;;;;;;;4916192;29;20435;-78
2022/04/20 00:22:08;;;;;;;2.90;2.23;;;;;;;;;;4933460;29;20960;-75
2022/04/20 00:24:35;;;;;;;2.67;2.13;;;;;;;;;;4933734;29;20999;-76
2022/04/20 00:27:02;;;;;;;3.73;2.47;;;;;;;;;;4933928;29;20446;-75
2022/04/20 00:29:30;;;;;;;2.20;1.80;;;;;;;;;;4933099;29;20501;-76
2022/04/20 00:31:57;;;;;;;2.40;2.20;;;;;;;;;;4931364;29;20794;-75
2022/04/20 00:34:25;;;;;;;2.23;2.03;;;;;;;;;;4929684;29;20435;-75
2022/04/20 00:36:53;;;;;;;2.70;2.27;;;;;;;;;;4932508;29;20535;-76
2022/04/20 00:39:21;;;;;;;2.90;2.47;;;;;;;;;;4933462;29;20451;-76
2022/04/20 00:41:48;;;;;;;3.57;2.03;;;;;;;;;;4934288;29;20458;-75
2022/04/20 00:44:15;;;;;;;2.97;2.37;;;;;;;;;;4934159;29;20940;-76
2022/04/20 00:46:45;;;;;;;2.53;1.80;;;;;;;;;;4933668;29;20446;-75
2022/04/20 00:49:12;;;;;;;5.43;2.80;;;;;;;;;;4916827;29;20577;-76
2022/04/20 00:51:50;;;;;;;2.70;1.93;;;;;;;;;;4916715;29;20467;-76
2022/04/20 00:54:17;;;;;;;4.63;2.50;;;;;;;;;;4926012;29;20450;-76
2022/04/20 00:56:44;;;;;;;3.00;2.20;;;;;;;;;;4933045;29;20446;-76
2022/04/20 00:59:12;;;;;;;4.47;2.40;;;;;;;;;;4935420;29;20450;-76
2022/04/20 01:01:39;;;;;;;3.10;2.30;;;;;;;;;;4936959;29;20470;-76
2022/04/20 01:04:08;;;;;;;3.60;2.10;;;;;;;;;;4937152;29;20541;-75
2022/04/20 01:06:35;;;;;;;3.40;2.63;;;;;;;;;;4937193;29;20438;-75
2022/04/20 01:09:02;;;;;;;2.80;2.37;;;;;;;;;;4937308;29;20585;-75
2022/04/20 01:11:29;;;;;;;4.80;1.97;;;;;;;;;;4938282;29;20490;-76
2022/04/20 01:13:57;;;;;;;3.63;2.23;;;;;;;;;;4939004;29;20453;-75
2022/04/20 01:16:24;;;;;;;3.17;2.20;;;;;;;;;;4936183;29;20449;-75
2022/04/20 01:18:53;;;;;;;2.77;2.47;;;;;;;;;;4932705;29;20435;-76
2022/04/20 01:21:22;;;;;;;4.33;2.70;;;;;;;;;;4934291;29;20474;-76
2022/04/20 01:23:49;;;;;;;3.30;2.30;;;;;;;;;;4936379;29;21054;-75
2022/04/20 01:26:16;;;;;;;3.67;2.20;;;;;;;;;;4936587;29;20441;-75
2022/04/20 01:28:45;;;;;;;3.00;2.00;;;;;;;;;;4920082;29;21073;-74
2022/04/20 01:31:14;;;;;;;3.10;2.57;;;;;;;;;;4936956;29;21040;-76
2022/04/20 01:33:42;;;;;;;2.40;2.20;;;;;;;;;;4921087;29;20459;-76
2022/04/20 01:36:09;;;;;;;3.03;2.33;;;;;;;;;;4938691;29;20814;-75
2022/04/20 01:38:38;;;;;;;2.70;2.07;;;;;;;;;;4936426;29;20447;-76
2022/04/20 01:41:05;;;;;;;4.40;2.27;;;;;;;;;;4932149;29;20463;-75
2022/04/20 01:43:32;;;;;;;2.63;2.00;;;;;;;;;;4933701;29;20465;-76
2022/04/20 01:45:59;;;;;;;3.50;2.60;;;;;;;;;;4936321;29;20446;-75
2022/04/20 01:48:27;;;;;;;3.90;2.43;;;;;;;;;;4936301;29;20855;-75
2022/04/20 01:53:38;;;;;;;2.53;2.33;;;;;;;;;;4935825;29;20836;-75
2022/04/20 01:56:07;;;;;;;2.97;2.40;;;;;;;;;;4937302;29;20466;-76
2022/04/20 01:58:35;;;;;;;3.50;2.67;;;;;;;;;;4938371;29;20516;-77
2022/04/20 02:02:34;;;;;;;3.43;2.20;;;;;;;;;;4936577;29;20465;-76
2022/04/20 02:03:48;;;;;;;2.83;2.40;;;;;;;;;;4904835;29;20427;-76
2022/04/20 02:06:15;;;;;;;2.83;2.33;;;;;;;;;;4932655;29;20439;-75
2022/04/20 02:08:43;;;;;;;3.00;2.47;;;;;;;;;;4935837;29;20482;-76
2022/04/20 02:11:11;;;;;;;3.20;2.47;;;;;;;;;;4935825;29;20511;-76
2022/04/20 02:13:38;;;;;;;2.50;2.30;;;;;;;;;;4936205;29;20446;-76
2022/04/20 02:16:06;;;;;;;2.40;2.20;;;;;;;;;;4936555;29;20509;-76
2022/04/20 02:18:36;;;;;;;3.20;2.23;;;;;;;;;;4936648;29;20451;-76
2022/04/20 02:21:03;;;;;;;3.20;2.60;;;;;;;;;;4937840;29;20470;-76
2022/04/20 02:23:30;;;;;;;3.00;2.40;;;;;;;;;;4936064;29;20470;-76
2022/04/20 02:25:57;;;;;;;2.70;2.37;;;;;;;;;;4931854;29;20446;-76
2022/04/20 02:28:26;;;;;;;4.03;2.57;;;;;;;;;;4932435;29;20478;-77
2022/04/20 02:30:53;;;;;;;3.60;3.03;;;;;;;;;;4935523;29;20481;-77
2022/04/20 02:33:20;;;;;;;3.70;2.73;;;;;;;;;;4935467;29;20455;-76
2022/04/20 02:35:47;;;;;;;2.87;2.40;;;;;;;;;;4935771;29;20447;-76
2022/04/20 02:38:16;;;;;;;2.77;2.57;;;;;;;;;;4936127;29;20938;-76
2022/04/20 02:40:43;;;;;;;4.97;2.40;;;;;;;;;;4936159;29;20497;-76
2022/04/20 02:43:11;;;;;;;3.03;2.50;;;;;;;;;;4936331;29;20446;-76
2022/04/20 02:45:40;;;;;;;3.23;2.70;;;;;;;;;;4936694;29;21002;-76
2022/04/20 02:48:07;;;;;;;4.03;2.70;;;;;;;;;;4930853;29;20921;-76
2022/04/20 02:50:34;;;;;;;3.20;2.67;;;;;;;;;;4932008;29;20810;-76
2022/04/20 02:53:02;;;;;;;2.63;2.30;;;;;;;;;;4934574;29;20449;-76
2022/04/20 02:55:29;;;;;;;3.77;2.50;;;;;;;;;;4935067;29;20477;-75
2022/04/20 02:57:56;;;;;;;2.70;2.43;;;;;;;;;;4935451;29;20454;-76
2022/04/20 03:00:23;;;;;;;6.00;2.40;;;;;;;;;;4935613;29;20462;-77
2022/04/20 03:02:52;;;;;;;3.50;2.60;;;;;;;;;;4935382;29;20455;-76
2022/04/20 03:05:19;;;;;;;3.10;2.37;;;;;;;;;;4936787;29;20458;-76
2022/04/20 03:07:46;;;;;;;3.93;2.53;;;;;;;;;;4937127;29;20464;-76
2022/04/20 03:10:13;;;;;;;3.90;2.57;;;;;;;;;;4931561;29;20489;-77
2022/04/20 03:12:40;;;;;;;3.10;2.80;;;;;;;;;;4930876;29;20442;-77
2022/04/20 03:15:08;;;;;;;3.60;2.63;;;;;;;;;;4934255;29;20510;-76
2022/04/20 03:17:35;;;;;;;3.87;2.50;;;;;;;;;;4934364;29;20451;-76
2022/04/20 03:20:04;;;;;;;2.73;2.40;;;;;;;;;;4935273;29;20456;-76
2022/04/20 03:22:31;;;;;;;3.23;2.77;;;;;;;;;;4936734;29;20438;-77
2022/04/20 03:24:59;;;;;;;3.17;2.30;;;;;;;;;;4936114;29;20605;-77
2022/04/20 03:27:26;;;;;;;4.80;2.70;;;;;;;;;;4936789;29;20443;-76
2022/04/20 03:29:53;;;;;;;3.63;2.40;;;;;;;;;;4936422;29;20987;-76
2022/04/20 03:32:20;;;;;;;2.37;2.07;;;;;;;;;;4932006;29;20454;-76
2022/04/20 03:34:48;;;;;;;4.32;2.60;;;;;;;;;;4930750;29;20431;-76
2022/04/20 03:37:16;;;;;;;2.63;1.80;;;;;;;;;;4934180;29;20206;-76
2022/04/20 03:39:44;;;;;;;5.23;2.70;;;;;;;;;;4937223;29;20458;-76
2022/04/20 03:42:11;;;;;;;3.78;2.55;;;;;;;;;;4936204;29;20466;-77
2022/04/20 03:44:39;;;;;;;4.75;2.10;;;;;;;;;;4939140;29;20640;-77
2022/04/20 03:47:07;;;;;;;2.90;2.30;;;;;;;;;;4938279;29;20234;-75
2022/04/20 03:49:34;;;;;;;3.67;2.10;;;;;;;;;;4936993;29;20274;-76
2022/04/20 03:52:02;;;;;;;2.90;2.40;;;;;;;;;;4938188;29;20215;-76
2022/04/20 03:54:30;;;;;;;3.00;2.60;;;;;;;;;;4933328;29;20497;-75
2022/04/20 03:57:04;;;;;;;5.25;2.63;;;;;;;;;;4929909;29;20957;-75
2022/04/20 03:59:32;;;;;;;2.50;2.30;;;;;;;;;;4932461;29;20198;-75
2022/04/20 04:01:59;;;;;;;2.67;2.47;;;;;;;;;;4935038;29;20470;-75
2022/04/20 04:04:27;;;;;;;5.57;2.83;;;;;;;;;;4936070;29;20461;-76
2022/04/20 04:06:54;;;;;;;3.00;2.70;;;;;;;;;;4935365;29;20457;-76
2022/04/20 04:09:21;;;;;;;3.85;3.03;;;;;;;;;;4938296;29;20481;-76
2022/04/20 04:11:50;;;;;;;4.00;2.40;;;;;;;;;;4935674;29;20226;-76
2022/04/20 04:14:17;;;;;;;5.40;3.20;;;;;;;;;;4940275;29;20933;-76
2022/04/20 04:16:45;;;;;;;4.40;2.90;;;;;;;;;;4934251;29;20430;-76
2022/04/20 04:19:12;;;;;;;4.78;2.72;;;;;;;;;;4930126;29;20209;-76
2022/04/20 04:21:39;;;;;;;5.87;2.60;;;;;;;;;;4931429;29;20219;-76
2022/04/20 04:24:08;;;;;;;3.17;2.87;;;;;;;;;;4934229;29;20502;-76
2022/04/20 04:26:35;;;;;;;2.77;2.47;;;;;;;;;;4934878;29;20497;-76
2022/04/20 04:29:03;;;;;;;2.42;2.15;;;;;;;;;;4938785;29;20837;-75
2022/04/20 04:31:31;;;;;;;2.92;2.40;;;;;;;;;;4941472;29;20585;-77
2022/04/20 04:33:58;;;;;;;3.65;2.45;;;;;;;;;;4924930;29;20289;-76
2022/04/20 04:36:25;;;;;;;6.68;2.65;;;;;;;;;;4942623;29;20218;-75
2022/04/20 04:38:52;;;;;;;3.03;2.50;;;;;;;;;;4941319;29;20836;-77
2022/04/20 04:41:19;;;;;;;5.38;2.40;;;;;;;;;;4935677;29;20599;-77
2022/04/20 04:43:46;;;;;;;2.55;2.35;;;;;;;;;;4936929;29;20191;-76
2022/04/20 04:48:56;;;;;;;3.20;2.33;;;;;;;;;;4940732;29;20555;-76
2022/04/20 04:51:23;;;;;;;3.90;2.90;;;;;;;;;;4940048;29;20307;-76
2022/04/20 04:53:50;;;;;;;5.18;2.50;;;;;;;;;;4939617;29;20678;-76
2022/04/20 04:56:17;;;;;;;4.60;2.93;;;;;;;;;;4940069;29;20202;-77
2022/04/20 04:58:44;;;;;;;3.23;2.33;;;;;;;;;;4940985;29;20439;-76
2022/04/20 05:01:12;;;;;;;3.75;2.45;;;;;;;;;;4939506;29;20473;-76
2022/04/20 05:03:40;;;;;;;6.13;2.95;;;;;;;;;;4933185;29;20251;-75
2022/04/20 05:06:07;;;;;;;3.37;2.80;;;;;;;;;;4934187;29;20198;-76
2022/04/20 05:08:34;;;;;;;3.00;2.03;;;;;;;;;;4936847;29;20460;-77
2022/04/20 05:11:01;;;;;;;2.93;2.63;;;;;;;;;;4937472;29;20500;-76
2022/04/20 05:13:29;;;;;;;3.13;2.23;;;;;;;;;;4939177;29;20450;-76
2022/04/20 05:15:56;;;;;;;4.13;2.37;;;;;;;;;;4939072;29;20454;-76
2022/04/20 05:18:23;;;;;;;3.70;2.40;;;;;;;;;;4938370;29;20452;-77
2022/04/20 05:20:51;;;;;;;5.97;2.93;;;;;;;;;;4939841;29;20466;-77
2022/04/20 05:23:18;;;;;;;3.23;2.80;;;;;;;;;;4940244;29;20474;-77
2022/04/20 05:25:45;;;;;;;3.13;2.40;;;;;;;;;;4933143;29;20442;-77
2022/04/20 05:28:13;;;;;;;10.60;4.03;;;;;;;;;;4932662;29;20443;-76
2022/04/20 05:30:40;;;;;;;3.73;3.10;;;;;;;;;;4936650;29;20482;-76
2022/04/20 05:33:08;;;;;;;6.87;2.53;;;;;;;;;;4936227;29;20451;-76
2022/04/20 05:35:35;;;;;;;3.63;2.70;;;;;;;;;;4937053;29;20447;-77
2022/04/20 05:43:25;;;;;;;6.03;3.20;;;;;;;;;;4937473;29;20790;-77
2022/04/20 05:45:53;;;;;;;3.77;3.07;;;;;;;;;;4938421;29;20453;-77
2022/04/20 05:48:20;;;;;;;3.13;2.60;;;;;;;;;;4932336;29;20450;-76
2022/04/20 05:50:47;;;;;;;4.83;2.63;;;;;;;;;;4932701;29;20486;-76
2022/04/20 05:53:16;;;;;;;3.30;2.67;;;;;;;;;;4935631;29;20447;-76
2022/04/20 05:55:43;;;;;;;2.77;2.17;;;;;;;;;;4935844;29;20443;-76
2022/04/20 05:58:10;;;;;;;3.87;3.10;;;;;;;;;;4936519;29;20984;-75
2022/04/20 06:00:38;;;;;;;4.00;2.60;;;;;;;;;;4936607;29;20893;-76
2022/04/20 06:03:05;;;;;;;5.53;2.90;;;;;;;;;;4936546;29;20447;-76
2022/04/20 06:05:32;;;;;;;3.60;2.30;;;;;;;;;;4938147;29;20455;-76
2022/04/20 06:07:59;;;;;;;2.53;2.27;;;;;;;;;;4938151;29;20776;-75
2022/04/20 06:10:29;;;;;;;5.57;3.27;;;;;;;;;;4932761;29;20493;-77
2022/04/20 06:12:57;;;;;;;5.50;2.40;;;;;;;;;;4932206;29;20445;-75
2022/04/20 06:15:24;;;;;;;5.63;3.20;;;;;;;;;;4935331;29;20456;-77
2022/04/20 06:17:51;;;;;;;6.70;2.60;;;;;;;;;;4935617;29;20449;-76
2022/04/20 06:20:18;;;;;;;2.87;2.67;;;;;;;;;;4936119;29;20526;-75
2022/04/20 06:22:45;;;;;;;2.67;2.47;;;;;;;;;;4936229;29;20808;-76
2022/04/20 06:25:12;;;;;;;3.97;2.47;;;;;;;;;;4934691;29;20509;-76
2022/04/20 06:27:41;;;;;;;2.80;2.50;;;;;;;;;;4932967;29;20763;-75
2022/04/20 06:30:09;;;;;;;6.47;2.50;;;;;;;;;;4931187;29;20482;-76
2022/04/20 06:32:36;;;;;;;3.40;2.70;;;;;;;;;;4934598;29;20450;-75
2022/04/20 06:35:04;;;;;;;4.80;2.53;;;;;;;;;;4935113;29;20451;-76
2022/04/20 06:37:31;;;;;;;3.73;2.60;;;;;;;;;;4935676;29;20443;-75
2022/04/20 06:39:58;;;;;;;4.40;2.67;;;;;;;;;;4935977;29;20458;-75
2022/04/20 06:42:26;;;;;;;5.70;2.63;;;;;;;;;;4934854;29;20832;-75
2022/04/20 06:44:55;;;;;;;6.20;3.10;;;;;;;;;;4937481;29;20455;-75
2022/04/20 06:47:22;;;;;;;2.73;2.37;;;;;;;;;;4937364;29;20963;-76
2022/04/20 06:49:49;;;;;;;4.07;2.90;;;;;;;;;;4934054;29;20976;-74
2022/04/20 07:00:21;;;;;;;3.50;2.83;;;;;;;;;;4934185;29;20442;-77
2022/04/20 07:02:48;;;;;;;2.50;2.30;;;;;;;;;;4935540;29;20447;-76
2022/04/20 07:05:15;;;;;;;3.40;2.83;;;;;;;;;;4934688;29;20449;-75
2022/04/20 07:07:42;;;;;;;3.93;2.47;;;;;;;;;;4937049;29;20484;-76
2022/04/20 07:10:10;;;;;;;2.80;2.33;;;;;;;;;;4936791;29;21018;-76
2022/04/20 07:12:37;;;;;;;3.07;2.60;;;;;;;;;;4933904;29;20446;-77
2022/04/20 07:15:05;;;;;;;3.30;2.77;;;;;;;;;;4930563;29;20475;-76
2022/04/20 07:17:33;;;;;;;4.47;3.13;;;;;;;;;;4931606;29;20518;-78
2022/04/20 07:20:02;;;;;;;2.83;2.53;;;;;;;;;;4934475;29;20447;-79
2022/04/20 07:22:30;;;;;;;4.23;2.53;;;;;;;;;;4934296;29;20532;-78
2022/04/20 07:24:57;;;;;;;4.20;3.20;;;;;;;;;;4932106;29;20571;-79
2022/04/20 07:27:25;;;;;;;4.53;2.47;;;;;;;;;;4934649;29;20478;-78
2022/04/20 07:29:52;;;;;;;4.90;2.50;;;;;;;;;;4933470;29;20487;-76
2022/04/20 07:32:19;;;;;;;2.90;2.70;;;;;;;;;;4930334;29;20454;-78
2022/04/20 07:34:47;;;;;;;3.43;2.50;;;;;;;;;;4931394;29;20438;-78
2022/04/20 07:37:15;;;;;;;2.70;2.37;;;;;;;;;;4934476;29;20453;-76
2022/04/20 07:39:42;;;;;;;3.03;2.17;;;;;;;;;;4934485;29;20457;-78
2022/04/20 07:42:09;;;;;;;6.53;2.67;;;;;;;;;;4934567;29;20471;-78
2022/04/20 07:44:36;;;;;;;3.97;2.50;;;;;;;;;;4934809;29;20449;-78
2022/04/20 07:47:03;;;;;;;4.00;2.47;;;;;;;;;;4935211;29;20441;-77
2022/04/20 07:52:13;;;;;;;3.27;2.60;;;;;;;;;;4934647;29;20500;-78
2022/04/20 07:54:40;;;;;;;4.10;2.37;;;;;;;;;;4929796;29;20955;-80
2022/04/20 07:57:07;;;;;;;3.00;2.63;;;;;;;;;;4930875;29;20475;-79
2022/04/20 07:59:35;;;;;;;3.60;2.60;;;;;;;;;;4933540;29;20877;-78
2022/04/20 08:02:02;;;;;;;2.87;2.13;;;;;;;;;;4933333;29;21032;-79
2022/04/20 08:04:30;;;;;;;2.60;2.00;;;;;;;;;;4933590;29;20956;-78
2022/04/20 08:06:57;;;;;;;3.00;2.60;;;;;;;;;;4934022;29;21036;-75
2022/04/20 08:09:26;;;;;;;4.20;2.70;;;;;;;;;;4933939;29;20505;-78
2022/04/20 08:11:53;;;;;;;3.00;2.70;;;;;;;;;;4931979;29;20483;-76
2022/04/20 08:14:21;;;;;;;3.60;2.70;;;;;;;;;;4930765;29;20417;-78
2022/04/20 08:16:48;;;;;;;4.13;2.27;;;;;;;;;;4932384;29;20967;-76
2022/04/20 08:19:15;;;;;;;3.20;2.60;;;;;;;;;;4933885;29;20860;-77
2022/04/20 08:21:42;;;;;;;3.90;2.50;;;;;;;;;;4934101;29;20479;-78
2022/04/20 08:24:10;;;;;;;6.57;2.80;;;;;;;;;;4934299;29;20466;-79
2022/04/20 08:26:38;;;;;;;3.93;2.20;;;;;;;;;;4934228;29;20443;-77
2022/04/20 08:29:09;;;;;;;2.57;2.37;;;;;;;;;;4935266;29;20478;-79
2022/04/20 08:31:36;;;;;;;3.30;2.60;;;;;;;;;;4935892;29;21098;-79
2022/04/20 08:34:04;;;;;;;3.10;2.63;;;;;;;;;;4933622;29;20494;-76
2022/04/20 08:36:31;;;;;;;3.43;2.47;;;;;;;;;;4929748;29;20393;-78
2022/04/20 08:38:58;;;;;;;3.07;2.77;;;;;;;;;;4930775;29;20955;-80
2022/04/20 08:41:25;;;;;;;3.20;2.40;;;;;;;;;;4933799;29;20471;-78
2022/04/20 08:43:54;;;;;;;2.67;2.43;;;;;;;;;;4933777;29;20457;-77
2022/04/20 08:46:22;;;;;;;3.70;2.60;;;;;;;;;;4929322;29;21028;-76
2022/04/20 08:48:51;;;;;;;4.90;2.70;;;;;;;;;;4932855;29;20447;-77
2022/04/20 08:51:19;;;;;;;3.13;2.43;;;;;;;;;;4934722;29;20505;-77
2022/04/20 08:53:46;;;;;;;4.53;2.20;;;;;;;;;;4935721;29;20446;-77
2022/04/20 08:58:57;;;;;;;5.53;2.97;;;;;;;;;;4928272;29;20435;-77
2022/04/20 09:01:27;;;;;;;3.93;2.20;;;;;;;;;;4929944;29;20473;-77
2022/04/20 09:03:55;;;;;;;3.10;2.27;;;;;;;;;;4916939;29;20446;-77
2022/04/20 09:06:22;;;;;;;3.23;2.37;;;;;;;;;;4916958;29;20450;-78
2022/04/20 09:08:49;;;;;;;2.00;1.77;;;;;;;;;;4933731;29;20958;-77
2022/04/20 09:11:16;;;;;;;2.70;2.13;;;;;;;;;;4933963;29;20496;-76
2022/04/20 09:13:45;;;;;;;3.30;2.37;;;;;;;;;;4934380;29;20462;-77
2022/04/20 09:16:14;;;;;;;3.57;2.40;;;;;;;;;;4938520;29;20456;-78
2022/04/20 09:18:43;;;;;;;2.73;2.43;;;;;;;;;;4937948;29;20453;-80
2022/04/20 09:21:16;;;;;;;3.93;2.43;;;;;;;;;;4932756;29;20861;-77
2022/04/20 09:33:16;;;;;;;3.80;2.70;;;;;;;;;;4901924;29;20455;-78
2022/04/20 09:35:44;;;;;;;3.10;2.30;;;;;;;;;;4936513;29;20455;-78
2022/04/20 09:38:11;;;;;;;2.67;2.27;;;;;;;;;;4938674;29;20452;-79
2022/04/20 09:40:39;;;;;;;3.27;2.63;;;;;;;;;;4937351;29;20478;-77
2022/04/20 09:43:07;;;;;;;4.50;2.43;;;;;;;;;;4935113;29;20798;-76
2022/04/20 09:45:35;;;;;;;3.30;2.27;;;;;;;;;;4932006;29;20944;-77
2022/04/20 09:50:56;;;;;;;4.37;2.63;;;;;;;;;;4920195;29;20481;-77
2022/04/20 09:53:33;;;;;;;3.10;2.50;;;;;;;;;;4935796;29;20534;-77
2022/04/20 09:56:15;;;;;;;2.80;2.33;;;;;;;;;;4936282;29;20449;-76
2022/04/20 09:58:43;;;;;;;2.60;2.20;;;;;;;;;;4919390;29;20463;-77
2022/04/20 10:01:24;;;;;;;2.87;2.47;;;;;;;;;;4938081;29;20470;-77
2022/04/20 10:03:54;;;;;;;3.70;2.50;;;;;;;;;;4938042;29;20458;-76
2022/04/20 10:06:23;;;;;;;4.53;2.17;;;;;;;;;;4933286;29;20891;-77
2022/04/20 10:08:50;;;;;;;3.23;2.30;;;;;;;;;;4915159;29;22015;-77
2022/04/20 10:11:18;;;;;;;2.83;2.20;;;;;;;;;;4934821;29;20483;-77
2022/04/20 10:16:05;;;;;;;3.70;2.40;;;;;;;;;;4935681;29;20472;-76
2022/04/20 10:16:32;;;;;;;3.27;2.70;;;;;;;;;;4921458;29;20445;-77
2022/04/20 10:19:00;;;;;;;2.83;2.50;;;;;;;;;;4936514;29;20485;-77
2022/04/20 10:21:28;;;;;;;3.23;2.20;;;;;;;;;;4935777;29;20826;-77
2022/04/20 10:24:05;;;;;;;3.30;2.30;;;;;;;;;;4937684;29;20473;-77
2022/04/20 10:26:33;;;;;;;4.20;2.77;;;;;;;;;;4936951;29;20450;-77
2022/04/20 10:29:03;;;;;;;4.10;2.50;;;;;;;;;;4931390;29;20818;-77
2022/04/20 10:31:33;;;;;;;3.23;2.50;;;;;;;;;;4932289;29;20508;-76
2022/04/20 10:34:04;;;;;;;2.77;2.27;;;;;;;;;;4934793;29;20453;-77
2022/04/20 10:36:33;;;;;;;2.50;2.30;;;;;;;;;;4935071;29;20457;-76
2022/04/20 10:39:15;;;;;;;3.33;2.27;;;;;;;;;;4918896;29;20445;-76
2022/04/20 10:42:00;;;;;;;3.70;2.23;;;;;;;;;;4920881;29;20480;-76
2022/04/20 10:44:49;;;;;;;4.77;2.63;;;;;;;;;;4921622;29;20809;-76
2022/04/20 10:47:20;;;;;;;3.27;2.30;;;;;;;;;;4937501;29;20800;-76
2022/04/20 10:49:47;;;;;;;3.20;2.47;;;;;;;;;;4917283;29;21028;-76
2022/04/20 10:52:25;;;;;;;2.73;2.00;;;;;;;;;;4930823;29;20504;-77
2022/04/20 10:54:53;;;;;;;4.60;2.20;;;;;;;;;;4932787;29;20445;-78
2022/04/20 10:57:33;;;;;;;3.93;2.20;;;;;;;;;;4934903;29;20442;-77
2022/04/20 11:00:16;;;;;;;2.70;2.37;;;;;;;;;;4934950;29;20421;-78
2022/04/20 11:02:49;;;;;;;2.60;2.40;;;;;;;;;;4934714;29;20506;-77
2022/04/20 11:05:16;;;;;;;3.30;2.30;;;;;;;;;;4918037;29;20478;-77
2022/04/20 11:10:43;;;;;;;4.13;2.50;;;;;;;;;;5113103;27;20420;-77
2022/04/20 11:19:05;;;;;;;3.40;2.23;;;;;;;;;;5067839;28;21003;-77
2022/04/20 11:21:33;;;;;;;4.70;2.50;;;;;;;;;;5067692;28;20449;-77
2022/04/20 11:24:03;;;;;;;2.40;2.20;;;;;;;;;;5068805;28;20446;-77
2022/04/20 11:26:33;;;;;;;2.87;2.60;;;;;;;;;;5069240;28;20464;-77
2022/04/20 11:29:03;;;;;;;2.70;2.37;;;;;;;;;;5070433;28;20472;-76
2022/04/20 11:31:37;;;;;;;5.40;2.50;;;;;;;;;;5067753;28;20459;-77
2022/04/20 11:34:05;;;;;;;2.20;2.00;;;;;;;;;;5062865;28;20433;-77
2022/04/20 11:36:32;;;;;;;4.50;2.90;;;;;;;;;;5064496;28;20975;-77
2022/04/20 11:39:01;;;;;;;5.10;2.20;;;;;;;;;;5068224;28;20806;-77
2022/04/20 11:41:28;;;;;;;2.53;2.10;;;;;;;;;;5067931;28;20460;-77
2022/04/20 11:43:58;;;;;;;4.63;2.47;;;;;;;;;;5068045;28;20472;-78
2022/04/20 11:46:25;;;;;;;6.70;2.70;;;;;;;;;;5068663;28;20527;-77
2022/04/20 11:48:53;;;;;;;3.43;2.30;;;;;;;;;;5068788;28;20803;-77
2022/04/20 11:51:23;;;;;;;3.10;2.10;;;;;;;;;;5070063;28;20463;-77
2022/04/20 11:53:50;;;;;;;3.30;2.17;;;;;;;;;;5068867;28;20918;-77
2022/04/20 11:56:17;;;;;;;2.63;2.00;;;;;;;;;;5062479;28;20399;-77
2022/04/20 11:58:49;;;;;;;4.70;2.00;;;;;;;;;;5064150;28;20645;-77
2022/04/20 12:01:18;;;;;;;2.30;2.10;;;;;;;;;;5066570;28;20514;-77
2022/04/20 12:03:50;;;;;;;2.90;2.23;;;;;;;;;;5067642;28;20463;-77
2022/04/20 12:06:18;;;;;;;3.87;2.53;;;;;;;;;;5067700;28;20440;-77
2022/04/20 12:08:47;;;;;;;3.63;2.70;;;;;;;;;;5067960;28;20835;-76
2022/04/20 12:11:15;;;;;;;2.20;2.00;;;;;;;;;;5067989;28;20475;-77
2022/04/20 12:13:42;;;;;;;2.30;2.00;;;;;;;;;;5069768;28;20850;-77
2022/04/20 12:16:10;;;;;;;5.03;2.37;;;;;;;;;;5068025;28;20424;-77
2022/04/20 12:18:41;;;;;;;4.83;2.13;;;;;;;;;;5063149;28;20425;-77
2022/04/20 12:21:08;;;;;;;3.60;2.30;;;;;;;;;;5054273;28;20468;-77
2022/04/20 12:23:37;;;;;;;2.80;2.30;;;;;;;;;;5052482;28;20412;-76
2022/04/20 12:26:05;;;;;;;4.43;2.70;;;;;;;;;;5054001;28;20988;-76
2022/04/20 12:28:36;;;;;;;3.27;2.30;;;;;;;;;;5052923;28;20907;-77
2022/04/20 12:31:03;;;;;;;3.57;1.80;;;;;;;;;;5054531;28;20462;-76
2022/04/20 12:33:31;;;;;;;3.23;1.80;;;;;;;;;;5054623;28;20445;-75
2022/04/20 12:36:01;;;;;;;3.00;2.23;;;;;;;;;;5055968;28;20437;-78
2022/04/20 12:38:28;;;;;;;3.60;2.10;;;;;;;;;;5054323;28;20409;-77
2022/04/20 12:40:56;;;;;;;3.53;2.17;;;;;;;;;;5049490;28;20460;-77
2022/04/20 12:43:23;;;;;;;2.53;2.20;;;;;;;;;;5050428;28;20444;-77
2022/04/20 12:45:53;;;;;;;2.63;1.90;;;;;;;;;;5053570;28;20516;-77
2022/04/20 12:48:20;;;;;;;5.13;2.00;;;;;;;;;;5053513;28;20538;-78
2022/04/20 12:50:48;;;;;;;2.83;2.20;;;;;;;;;;5053402;28;20825;-77
2022/04/20 12:53:18;;;;;;;3.13;2.43;;;;;;;;;;5054179;28;20424;-77
2022/04/20 13:04:06;;;;;;;2.77;2.10;;;;;;;;;;5048650;28;20444;-77
2022/04/20 13:06:33;;;;;;;3.00;1.80;;;;;;;;;;5051639;28;20441;-77
2022/04/20 13:09:01;;;;;;;3.30;2.27;;;;;;;;;;5052762;28;20472;-78
2022/04/20 13:11:29;;;;;;;4.43;2.00;;;;;;;;;;5052999;28;20468;-76
2022/04/20 13:13:57;;;;;;;5.13;2.30;;;;;;;;;;5053850;28;20441;-77
2022/04/20 13:16:25;;;;;;;3.40;2.30;;;;;;;;;;5053419;28;20599;-77
2022/04/20 13:18:53;;;;;;;5.37;2.80;;;;;;;;;;5054642;28;20441;-77
2022/04/20 13:21:20;;;;;;;2.37;2.17;;;;;;;;;;5055046;28;20454;-78
2022/04/20 13:23:49;;;;;;;2.20;2.00;;;;;;;;;;5051066;28;20437;-78
2022/04/20 13:28:59;;;;;;;4.73;1.97;;;;;;;;;;5051213;28;20437;-78
2022/04/20 13:31:26;;;;;;;2.13;1.80;;;;;;;;;;5052307;28;20977;-78
2022/04/20 13:33:53;;;;;;;3.87;2.20;;;;;;;;;;5052025;28;20440;-76
2022/04/20 13:36:21;;;;;;;2.30;2.10;;;;;;;;;;5053139;28;20441;-77
2022/04/20 13:38:48;;;;;;;2.30;1.93;;;;;;;;;;5052403;28;20894;-77
2022/04/20 13:41:15;;;;;;;3.13;1.97;;;;;;;;;;5054663;28;20462;-77
2022/04/20 13:43:44;;;;;;;2.47;2.27;;;;;;;;;;5054873;28;20445;-79
2022/04/20 13:46:11;;;;;;;2.20;2.03;;;;;;;;;;5048946;28;20445;-76
2022/04/20 13:48:38;;;;;;;4.33;2.20;;;;;;;;;;5048155;28;20425;-77
2022/04/20 13:51:05;;;;;;;2.57;2.00;;;;;;;;;;5050887;28;20993;-77
2022/04/20 13:53:33;;;;;;;3.03;1.97;;;;;;;;;;5052149;28;20437;-77
2022/04/20 13:56:00;;;;;;;1.90;1.70;;;;;;;;;;5052463;28;20461;-76
2022/04/20 13:58:27;;;;;;;2.57;2.00;;;;;;;;;;5052651;28;20465;-76
2022/04/20 14:00:56;;;;;;;3.20;1.83;;;;;;;;;;5052171;28;20439;-76
2022/04/20 14:03:25;;;;;;;3.77;2.60;;;;;;;;;;5034234;28;20503;-76
2022/04/20 14:05:52;;;;;;;2.23;2.00;;;;;;;;;;5065773;28;20941;-77
2022/04/20 14:08:19;;;;;;;2.40;2.20;;;;;;;;;;5042928;28;20416;-76
2022/04/20 14:10:46;;;;;;;3.17;1.70;;;;;;;;;;5047697;28;20456;-78
2022/04/20 14:13:13;;;;;;;2.20;1.90;;;;;;;;;;5050605;28;20412;-77
2022/04/20 14:15:41;;;;;;;5.00;2.30;;;;;;;;;;5051690;28;20424;-77
2022/04/20 14:18:09;;;;;;;1.93;1.80;;;;;;;;;;5051672;28;20421;-77
2022/04/20 14:20:36;;;;;;;3.83;2.07;;;;;;;;;;5052262;28;20497;-76
2022/04/20 14:23:03;;;;;;;2.63;2.00;;;;;;;;;;5051924;28;20415;-77
2022/04/20 14:33:35;;;;;;;3.13;2.00;;;;;;;;;;5048393;28;20411;-78
2022/04/20 14:36:02;;;;;;;2.20;2.00;;;;;;;;;;5051673;28;20437;-77
2022/04/20 14:38:29;;;;;;;2.97;2.03;;;;;;;;;;5051523;28;20445;-78
2022/04/20 14:40:56;;;;;;;3.73;2.07;;;;;;;;;;5051666;28;20448;-76
2022/04/20 14:43:24;;;;;;;3.03;2.00;;;;;;;;;;5051956;28;20423;-77
2022/04/20 14:45:51;;;;;;;5.20;2.03;;;;;;;;;;5051551;28;20939;-76
2022/04/20 14:48:18;;;;;;;2.20;2.00;;;;;;;;;;5053351;28;20892;-74
2022/04/20 14:50:47;;;;;;;1.53;1.43;;;;;;;;;;5052881;28;20464;-75
2022/04/20 14:53:14;;;;;;;2.50;1.97;;;;;;;;;;5049219;28;20427;-74
2022/04/20 14:55:42;;;;;;;2.87;2.00;;;;;;;;;;5046936;28;20429;-77
2022/04/20 14:58:09;;;;;;;3.37;1.90;;;;;;;;;;5049613;28;20459;-78
2022/04/20 15:00:36;;;;;;;3.80;2.30;;;;;;;;;;5050941;28;20536;-77
2022/04/20 15:03:04;;;;;;;2.83;2.20;;;;;;;;;;5051408;28;20456;-78
2022/04/20 15:05:31;;;;;;;2.00;1.80;;;;;;;;;;5051713;28;20813;-77
2022/04/20 15:07:59;;;;;;;2.17;1.97;;;;;;;;;;5051154;28;20415;-75
2022/04/20 15:10:26;;;;;;;3.43;2.07;;;;;;;;;;5052351;28;20494;-78
2022/04/20 15:12:54;;;;;;;1.80;1.70;;;;;;;;;;5053436;28;20411;-77
2022/04/20 15:15:21;;;;;;;2.47;2.17;;;;;;;;;;5051471;28;20810;-77
2022/04/20 15:17:48;;;;;;;3.63;2.00;;;;;;;;;;5046813;28;20794;-76
2022/04/20 15:20:16;;;;;;;2.40;2.00;;;;;;;;;;5047386;28;20409;-76
2022/04/20 15:22:43;;;;;;;2.10;1.90;;;;;;;;;;5050784;28;21113;-75
2022/04/20 15:25:13;;;;;;;2.63;1.90;;;;;;;;;;5051036;28;20438;-75
2022/04/20 15:27:40;;;;;;;2.07;1.87;;;;;;;;;;5051151;28;20846;-76
2022/04/20 15:30:08;;;;;;;2.20;1.90;;;;;;;;;;5051088;28;20453;-78
2022/04/20 15:32:35;;;;;;;3.13;2.10;;;;;;;;;;5051788;28;20429;-77
2022/04/20 15:35:04;;;;;;;2.67;2.00;;;;;;;;;;5052910;28;20447;-76
2022/04/20 15:37:32;;;;;;;2.50;1.97;;;;;;;;;;5052711;28;20504;-77
2022/04/20 15:39:59;;;;;;;2.07;1.90;;;;;;;;;;5046303;28;20401;-76
2022/04/20 15:42:28;;;;;;;3.17;2.20;;;;;;;;;;5047132;28;20437;-77
2022/04/20 15:44:57;;;;;;;3.60;2.03;;;;;;;;;;5050105;28;20414;-75
2022/04/20 15:47:24;;;;;;;3.70;2.20;;;;;;;;;;5050410;28;20422;-79
2022/04/20 15:49:51;;;;;;;1.87;1.73;;;;;;;;;;5051029;28;20223;-76
2022/04/20 15:52:19;;;;;;;2.77;2.20;;;;;;;;;;5049904;28;20429;-78
2022/04/20 16:00:12;;;;;;;3.60;2.80;;;;;;;;;;5051313;28;20448;-80